Airfield :
LOGIN :

Register | Disclaimer

   EN    FR    IT 

 










Legend :    VFR   Marginal VFR   IFR   Intensive IFR   Very Intensive IFR
Visi :
Ceiling :
>= 8 km
>= 3000ft
5 to 8 km
1000 to 3000 ft
1500m to 5 km
500 to 1000 ft
800 to 1500m
200 to 500 ft
< 800m
< 200 ft
Symbols :   Thunderstorms  Fog  Heavy snow  Heavy precipitations  Wind > 20 kt
SIGMETs :     Misc.  Thunderstorms  Icing  Turbulence  Mountain Waves  Volcanic Ashes






- Airport Elevation : 14 ft
- IATA code : URE


EEKE - Kuressaare

CURRENT METAR :
  • 111950Z AUTO VRB02KT 9999NDV OVC031 05/05 Q1013

EXPIRED METARs :
  • 111850Z AUTO 24002KT 9999NDV OVC031 04/04 Q1013
  • 111750Z AUTO VRB02KT 9999NDV OVC028 04/04 Q1013

TAF TAF EEKE
Valid from the 11 at 16:00 until the 11 at 22:00 UTC


111500Z 1116/1122 25008KT 9999 SCT010 BKN025
TEMPO 1116/1117 BKN006 SCT016CB
PROB40
TEMPO 1117/1122 1200 BR BKN004 FEW016CB



MET'MAP, your aeronautical weather chart ! - Copyright ORBIFLY December 2007 - Disclaimer

ORBIFLY MET'MAP TEAM :

Programming & Development : Alexandra Zaïnal
Concept & Development : Baudouin d'Aumeries
Co-Development & Prog : Marc-Olivier Méhu
Technical & hardware support : Manuel Goepfert

Contact : metmap@orbifly.com




SOURCES & CREDITS :

   NOAA